createdAt,value
2022-10-16T00:01:41.382Z,10.00
2022-10-16T00:04:10.429Z,11.37
2022-10-16T00:06:40.249Z,10.13
2022-10-16T00:09:09.148Z,9.63
2022-10-16T00:11:39.597Z,11.33
2022-10-16T00:14:10.116Z,11.13
2022-10-16T00:16:38.261Z,14.73
2022-10-16T00:19:06.689Z,10.63
2022-10-16T00:21:35.713Z,13.70
2022-10-16T00:24:07.416Z,11.83
2022-10-16T00:26:36.517Z,12.43
2022-10-16T00:29:05.861Z,11.53
2022-10-16T00:31:34.321Z,12.30
2022-10-16T00:34:02.484Z,9.07
2022-10-16T00:36:31.699Z,13.00
2022-10-16T00:41:36.544Z,12.90
2022-10-16T00:44:06.311Z,11.80
2022-10-16T00:46:40.092Z,13.40
2022-10-16T00:49:11.826Z,10.13
2022-10-16T00:51:42.989Z,10.77
2022-10-16T00:54:14.315Z,15.53
2022-10-16T00:56:44.775Z,9.07
2022-10-16T00:59:18.767Z,10.57
2022-10-16T01:01:47.409Z,13.33
2022-10-16T01:04:15.609Z,11.43
2022-10-16T01:06:49.776Z,9.53
2022-10-16T01:09:25.450Z,8.17
2022-10-16T01:12:05.231Z,13.40
2022-10-16T01:14:41.701Z,13.10
2022-10-16T01:17:14.949Z,14.30
2022-10-16T01:20:03.573Z,8.90
2022-10-16T01:22:40.207Z,13.37
2022-10-16T01:25:14.083Z,11.30
2022-10-16T01:27:46.505Z,10.83
2022-10-16T01:30:19.274Z,13.27
2022-10-16T01:32:52.262Z,15.67
2022-10-16T01:35:25.401Z,11.30
2022-10-16T01:37:58.284Z,11.17
2022-10-16T01:40:29.184Z,13.20
2022-10-16T01:43:02.639Z,12.23
2022-10-16T01:45:33.718Z,11.43
2022-10-16T01:48:05.231Z,9.03
2022-10-16T01:50:35.413Z,10.37
2022-10-16T01:53:05.577Z,9.47
2022-10-16T01:55:37.635Z,7.13
2022-10-16T01:58:09.868Z,10.97
2022-10-16T02:00:40.448Z,10.97
2022-10-16T02:03:09.425Z,10.70
2022-10-16T02:05:43.263Z,7.57
2022-10-16T02:08:11.451Z,9.43
2022-10-16T02:10:40.321Z,10.43
2022-10-16T02:13:13.421Z,8.93
2022-10-16T02:15:41.613Z,10.47
2022-10-16T02:18:10.648Z,8.70
2022-10-16T02:20:44.992Z,7.87
2022-10-16T02:23:19.456Z,8.70
2022-10-16T02:25:49.791Z,11.93
2022-10-16T02:28:24.585Z,9.93
2022-10-16T02:30:56.068Z,9.63
2022-10-16T02:33:25.747Z,9.83
2022-10-16T02:35:55.483Z,10.93
2022-10-16T02:38:24.973Z,10.53
2022-10-16T02:40:53.474Z,9.63
2022-10-16T02:43:22.974Z,10.33
2022-10-16T02:45:51.221Z,8.67
2022-10-16T02:48:19.291Z,7.80
2022-10-16T02:50:47.435Z,9.33
2022-10-16T02:53:15.596Z,8.40
2022-10-16T02:55:43.727Z,8.97
2022-10-16T02:58:11.816Z,8.03
2022-10-16T03:00:41.435Z,7.57
2022-10-16T03:03:09.626Z,10.27
2022-10-16T03:05:37.717Z,10.43
2022-10-16T03:08:06.072Z,9.73
2022-10-16T03:10:34.221Z,7.67
2022-10-16T03:13:02.364Z,8.03
2022-10-16T03:15:30.498Z,12.57
2022-10-16T03:18:01.459Z,11.43
2022-10-16T03:20:29.529Z,8.70
2022-10-16T03:22:57.591Z,8.73
2022-10-16T03:25:25.729Z,10.13
2022-10-16T03:27:54.320Z,10.40
2022-10-16T03:30:22.580Z,10.23
2022-10-16T03:32:54.946Z,7.93
2022-10-16T03:35:25.594Z,9.07
2022-10-16T03:37:54.225Z,7.10
2022-10-16T03:40:22.352Z,10.77
2022-10-16T03:42:50.502Z,9.07
2022-10-16T03:45:18.837Z,6.20
2022-10-16T03:47:46.939Z,11.40
2022-10-16T03:50:15.024Z,9.90
2022-10-16T03:52:44.501Z,7.07
2022-10-16T03:55:12.616Z,7.73
2022-10-16T03:57:40.707Z,7.57
2022-10-16T04:00:09.853Z,10.60
2022-10-16T04:02:38.002Z,6.23
2022-10-16T04:05:06.609Z,6.50
2022-10-16T04:07:34.728Z,7.30
2022-10-16T04:10:04.371Z,5.67
2022-10-16T04:12:32.449Z,6.47
2022-10-16T04:15:00.621Z,5.13
2022-10-16T04:17:28.878Z,5.53
2022-10-16T04:19:57.182Z,6.63
2022-10-16T04:22:25.335Z,7.80
2022-10-16T04:24:53.442Z,7.40
2022-10-16T04:27:23.011Z,8.20
2022-10-16T04:29:51.325Z,7.70
2022-10-16T04:32:19.436Z,11.43
2022-10-16T04:34:47.558Z,13.30
2022-10-16T04:37:15.616Z,10.30
2022-10-16T04:39:43.688Z,9.73
2022-10-16T04:42:11.801Z,14.23
2022-10-16T04:44:41.321Z,10.90
2022-10-16T04:47:09.419Z,8.77
2022-10-16T04:49:37.546Z,7.53
2022-10-16T04:52:05.845Z,8.20
2022-10-16T04:54:34.103Z,11.63
2022-10-16T04:57:02.157Z,10.43
2022-10-16T04:59:30.258Z,8.30
2022-10-16T05:01:59.732Z,11.97
2022-10-16T05:04:27.809Z,9.80
2022-10-16T05:06:55.867Z,10.90
2022-10-16T05:09:24.365Z,10.57
2022-10-16T05:11:52.420Z,9.50
2022-10-16T05:14:20.529Z,7.87
2022-10-16T05:16:49.231Z,6.03
2022-10-16T05:19:33.934Z,6.57
2022-10-16T05:22:02.143Z,3.77
2022-10-16T05:24:30.241Z,6.73
2022-10-16T05:26:58.592Z,5.00
2022-10-16T05:29:26.947Z,4.03
2022-10-16T05:31:55.424Z,5.27
2022-10-16T05:34:24.961Z,4.27
2022-10-16T05:36:53.070Z,5.83
2022-10-16T05:39:21.455Z,5.00
2022-10-16T05:41:51.511Z,3.80
2022-10-16T05:44:19.575Z,2.97
2022-10-16T05:46:48.975Z,5.17
2022-10-16T05:49:17.349Z,4.17
2022-10-16T05:51:46.778Z,4.37
2022-10-16T05:54:15.098Z,4.10
2022-10-16T05:56:43.191Z,10.53
2022-10-16T05:59:11.308Z,7.37
2022-10-16T06:01:39.418Z,15.40
2022-10-16T06:04:07.574Z,11.53
2022-10-16T06:06:37.287Z,11.70
2022-10-16T06:09:07.235Z,16.27
2022-10-16T06:11:36.093Z,17.70
2022-10-16T06:14:07.816Z,11.87
2022-10-16T06:16:37.832Z,20.77
2022-10-16T06:19:07.327Z,24.63
2022-10-16T06:21:35.883Z,25.47
2022-10-16T06:24:04.188Z,25.93
2022-10-16T06:26:33.801Z,24.83
2022-10-16T06:29:02.463Z,27.20
2022-10-16T06:31:32.054Z,25.40
2022-10-16T06:34:00.513Z,26.77
2022-10-16T06:36:28.982Z,34.33
2022-10-16T06:38:57.267Z,35.10
2022-10-16T06:41:25.522Z,34.37
2022-10-16T06:43:55.061Z,42.33
2022-10-16T06:46:26.476Z,38.13
2022-10-16T06:48:54.936Z,47.47
2022-10-16T06:51:24.768Z,43.47
2022-10-16T06:54:03.236Z,48.77
2022-10-16T06:56:32.723Z,51.97
2022-10-16T06:59:03.122Z,50.37
2022-10-16T07:01:31.883Z,48.70
2022-10-16T07:04:00.000Z,57.67
2022-10-16T07:06:29.473Z,58.40
2022-10-16T07:08:57.799Z,55.23
2022-10-16T07:11:26.335Z,61.20
2022-10-16T07:13:56.170Z,63.73
2022-10-16T07:16:28.154Z,77.30
2022-10-16T07:18:59.553Z,74.90
2022-10-16T07:21:29.933Z,74.88
2022-10-16T07:24:00.122Z,75.33
2022-10-16T07:26:29.463Z,64.63
2022-10-16T07:28:58.057Z,58.67
2022-10-16T07:31:27.849Z,40.23
2022-10-16T07:33:56.833Z,39.43
2022-10-16T07:36:24.910Z,30.43
2022-10-16T07:38:55.631Z,32.83
2022-10-16T07:41:26.919Z,93.10
2022-10-16T07:43:56.016Z,39.40
2022-10-16T07:46:25.070Z,30.03
2022-10-16T07:48:54.814Z,27.13
2022-10-16T07:51:24.243Z,23.47
2022-10-16T07:53:53.139Z,21.33
2022-10-16T07:56:21.652Z,21.03
2022-10-16T07:58:50.757Z,15.03
2022-10-16T08:01:20.157Z,15.43
2022-10-16T08:03:49.844Z,14.80
2022-10-16T08:06:23.377Z,14.73
2022-10-16T08:08:55.139Z,16.27
2022-10-16T08:11:24.288Z,17.07
2022-10-16T08:13:52.397Z,21.93
2022-10-16T08:16:20.572Z,25.77
2022-10-16T08:18:48.711Z,40.53
2022-10-16T08:21:21.238Z,46.83
2022-10-16T08:23:54.627Z,46.37
2022-10-16T08:26:26.628Z,47.87
2022-10-16T08:28:55.086Z,48.10
2022-10-16T08:31:23.955Z,70.10
2022-10-16T08:33:53.184Z,59.93
2022-10-16T08:36:22.772Z,63.33
2022-10-16T08:38:54.408Z,59.73
2022-10-16T08:42:02.186Z,64.90
2022-10-16T08:44:55.741Z,52.53
2022-10-16T08:47:28.097Z,58.17
2022-10-16T08:49:59.980Z,57.40
2022-10-16T08:52:33.193Z,51.50
2022-10-16T08:55:01.473Z,53.47
2022-10-16T08:57:29.653Z,60.93
2022-10-16T09:00:02.513Z,49.57
2022-10-16T09:02:36.525Z,50.07
2022-10-16T09:05:22.472Z,62.07
2022-10-16T09:10:45.936Z,56.27
2022-10-16T09:13:21.477Z,52.20
2022-10-16T09:15:56.584Z,50.90
2022-10-16T09:18:33.038Z,48.13
2022-10-16T09:21:07.978Z,53.50
2022-10-16T09:23:39.354Z,45.50
2022-10-16T09:26:12.088Z,56.73
2022-10-16T09:28:40.411Z,46.10
2022-10-16T09:31:15.578Z,47.27
2022-10-16T09:33:46.025Z,46.20
2022-10-16T09:36:15.256Z,46.63
2022-10-16T09:38:44.756Z,43.50
2022-10-16T09:41:26.170Z,41.53
2022-10-16T09:43:57.480Z,52.13
2022-10-16T09:46:29.667Z,51.10
2022-10-16T09:49:00.245Z,45.97
2022-10-16T09:51:30.813Z,49.13
2022-10-16T09:54:02.562Z,47.53
2022-10-16T09:56:33.457Z,53.53
2022-10-16T09:59:04.643Z,51.87
2022-10-16T10:01:38.720Z,56.83
2022-10-16T10:04:08.027Z,49.40
2022-10-16T10:06:39.244Z,56.23
2022-10-16T10:09:19.178Z,58.17
2022-10-16T10:11:58.428Z,52.80
2022-10-16T10:14:34.597Z,62.33
2022-10-16T10:17:15.038Z,54.07
2022-10-16T10:19:51.475Z,56.93
2022-10-16T10:22:31.062Z,55.70
2022-10-16T10:25:22.039Z,64.70
2022-10-16T10:28:02.586Z,58.03
2022-10-16T10:30:40.202Z,54.20
2022-10-16T10:33:20.920Z,55.80
2022-10-16T10:35:58.456Z,53.30
2022-10-16T10:38:40.383Z,56.47
2022-10-16T10:41:30.492Z,56.80
2022-10-16T10:44:08.437Z,55.30
2022-10-16T10:46:43.370Z,53.43
2022-10-16T10:49:31.172Z,53.30
2022-10-16T10:52:13.028Z,51.07
2022-10-16T10:54:49.336Z,50.17
2022-10-16T10:57:27.602Z,57.10
2022-10-16T11:00:11.738Z,56.57
2022-10-16T11:02:43.595Z,51.30
2022-10-16T11:05:32.153Z,50.83
2022-10-16T11:08:02.528Z,48.33
2022-10-16T11:10:38.003Z,45.17
2022-10-16T11:13:26.299Z,50.63
2022-10-16T11:15:59.205Z,54.33
2022-10-16T11:18:32.511Z,48.23
2022-10-16T11:21:06.554Z,44.37
2022-10-16T11:23:42.338Z,42.03
2022-10-16T11:26:17.332Z,40.77
2022-10-16T11:28:50.605Z,49.97
2022-10-16T11:31:24.114Z,51.23
2022-10-16T11:33:59.762Z,55.20
2022-10-16T11:36:35.219Z,50.70
2022-10-16T11:39:10.983Z,53.27
2022-10-16T11:41:45.812Z,49.40
2022-10-16T11:44:34.589Z,50.67
2022-10-16T11:47:46.787Z,41.13
2022-10-16T11:50:02.798Z,39.07
2022-10-16T11:52:38.647Z,46.10
2022-10-16T11:55:15.288Z,40.53
2022-10-16T11:57:47.967Z,45.63
2022-10-16T12:00:25.421Z,41.50
2022-10-16T12:03:04.706Z,42.00
2022-10-16T12:05:40.914Z,36.40
2022-10-16T12:08:12.369Z,40.97
2022-10-16T12:10:42.371Z,37.90
2022-10-16T12:13:32.330Z,39.50
2022-10-16T12:16:09.764Z,41.10
2022-10-16T12:18:37.821Z,45.30
2022-10-16T12:21:07.773Z,40.93
2022-10-16T12:23:39.947Z,42.03
2022-10-16T12:26:08.287Z,42.03
2022-10-16T12:28:37.376Z,44.30
2022-10-16T12:31:09.517Z,37.37
2022-10-16T12:33:41.536Z,40.63
2022-10-16T12:36:17.087Z,42.63
2022-10-16T12:38:50.070Z,39.33
2022-10-16T12:41:27.860Z,40.33
2022-10-16T12:43:56.322Z,44.27
2022-10-16T12:46:37.515Z,44.73
2022-10-16T12:49:31.570Z,40.57
2022-10-16T12:52:00.136Z,41.83
2022-10-16T12:54:31.452Z,46.23
2022-10-16T12:57:20.458Z,39.50
2022-10-16T12:59:57.702Z,39.23
2022-10-16T13:03:12.371Z,41.97
2022-10-16T13:05:52.938Z,39.97
2022-10-16T13:08:37.515Z,43.97
2022-10-16T13:11:14.239Z,39.93
2022-10-16T13:13:58.404Z,38.30
2022-10-16T13:16:35.554Z,32.17
2022-10-16T13:19:20.069Z,42.13
2022-10-16T13:21:58.406Z,41.90
2022-10-16T13:24:44.044Z,46.00
2022-10-16T13:27:22.960Z,40.23
2022-10-16T13:29:56.273Z,41.73
2022-10-16T13:32:24.681Z,38.70
2022-10-16T13:34:54.182Z,40.60
2022-10-16T13:37:26.126Z,46.40
2022-10-16T13:40:09.622Z,36.77
2022-10-16T13:42:37.743Z,38.83
2022-10-16T13:45:06.519Z,40.20
2022-10-16T13:47:34.801Z,36.63
2022-10-16T13:50:05.331Z,38.30
2022-10-16T13:52:35.263Z,42.23
2022-10-16T13:55:03.365Z,36.90
2022-10-16T13:57:31.515Z,36.90
2022-10-16T13:59:59.619Z,38.33
2022-10-16T14:02:31.289Z,35.50
2022-10-16T14:05:00.105Z,39.20
2022-10-16T14:07:30.155Z,38.93
2022-10-16T14:10:05.848Z,38.83
2022-10-16T14:12:34.875Z,36.70
2022-10-16T14:15:03.655Z,37.00
2022-10-16T14:17:34.629Z,41.83
2022-10-16T14:20:07.187Z,41.73
2022-10-16T14:22:37.982Z,43.27
2022-10-16T14:25:31.799Z,41.03
2022-10-16T14:30:37.504Z,41.43
2022-10-16T14:33:07.534Z,44.13
2022-10-16T14:35:37.580Z,42.97
2022-10-16T14:38:07.446Z,36.53
2022-10-16T14:40:39.056Z,41.77
2022-10-16T14:43:07.807Z,44.27
2022-10-16T14:45:37.426Z,40.33
2022-10-16T14:48:18.775Z,41.03
2022-10-16T14:50:48.090Z,38.37
2022-10-16T14:53:16.466Z,39.70
2022-10-16T14:55:46.598Z,41.70
2022-10-16T14:58:18.133Z,37.63
2022-10-16T15:00:46.252Z,39.97
2022-10-16T15:03:14.365Z,34.67
2022-10-16T15:05:42.557Z,40.00
2022-10-16T15:08:10.661Z,46.57
2022-10-16T15:10:45.513Z,37.57
2022-10-16T15:13:16.083Z,38.67
2022-10-16T15:15:45.946Z,39.20
2022-10-16T15:18:15.815Z,45.47
2022-10-16T15:20:44.247Z,43.57
2022-10-16T15:23:16.412Z,37.23
2022-10-16T15:25:46.478Z,41.00
2022-10-16T15:28:17.258Z,37.90
2022-10-16T15:30:47.063Z,37.73
2022-10-16T15:33:17.342Z,38.03
2022-10-16T15:35:48.183Z,39.40
2022-10-16T15:38:17.013Z,36.63
2022-10-16T15:40:45.170Z,33.43
2022-10-16T15:43:13.256Z,32.83
2022-10-16T15:45:42.968Z,34.43
2022-10-16T15:48:14.188Z,33.13
2022-10-16T15:53:12.772Z,27.30
2022-10-16T15:55:40.868Z,30.37
2022-10-16T15:58:08.993Z,32.80
2022-10-16T16:00:37.342Z,31.03
2022-10-16T16:03:06.900Z,28.40
2022-10-16T16:05:36.350Z,28.27
2022-10-16T16:08:04.548Z,32.10
2022-10-16T16:10:32.687Z,33.83
2022-10-16T16:13:00.800Z,31.87
2022-10-16T16:15:28.907Z,31.10
2022-10-16T16:17:57.087Z,27.63
2022-10-16T16:20:26.613Z,29.10
2022-10-16T16:22:54.814Z,26.63
2022-10-16T16:25:22.916Z,30.47
2022-10-16T16:27:51.049Z,25.80
2022-10-16T16:30:23.673Z,33.10
2022-10-16T16:32:54.141Z,33.00
2022-10-16T16:35:22.273Z,29.07
2022-10-16T16:37:51.729Z,27.57
2022-10-16T16:40:20.057Z,27.53
2022-10-16T16:42:50.491Z,29.93
2022-10-16T16:45:18.666Z,33.60
2022-10-16T16:47:46.841Z,31.77
2022-10-16T16:50:14.994Z,31.40
2022-10-16T16:52:43.109Z,30.10
2022-10-16T16:55:12.701Z,31.20
2022-10-16T16:57:40.808Z,28.43
2022-10-16T17:00:10.326Z,34.93
2022-10-16T17:02:38.429Z,32.37
2022-10-16T17:05:06.982Z,31.53
2022-10-16T17:07:35.574Z,32.77
2022-10-16T17:10:04.237Z,30.27
2022-10-16T17:12:33.708Z,28.87
2022-10-16T17:15:01.840Z,32.07
2022-10-16T17:17:30.262Z,31.40
2022-10-16T17:19:58.572Z,28.67
2022-10-16T17:22:26.942Z,27.03
2022-10-16T17:24:55.230Z,32.67
2022-10-16T17:27:23.830Z,27.87
2022-10-16T17:29:53.927Z,27.07
2022-10-16T17:32:23.713Z,24.77
2022-10-16T17:34:51.835Z,29.07
2022-10-16T17:37:19.929Z,28.83
2022-10-16T17:39:48.231Z,32.83
2022-10-16T17:42:16.293Z,30.73
2022-10-16T17:44:44.381Z,31.83
2022-10-16T17:47:14.055Z,32.60
2022-10-16T17:49:42.423Z,33.83
2022-10-16T17:52:10.612Z,148.57
2022-10-16T17:54:39.842Z,44.20
2022-10-16T17:57:08.100Z,30.17
2022-10-16T17:59:36.181Z,25.13
2022-10-16T18:02:04.869Z,30.50
2022-10-16T18:04:34.563Z,29.17
2022-10-16T18:07:02.702Z,27.37
2022-10-16T18:09:31.082Z,28.77
2022-10-16T18:12:00.825Z,26.23
2022-10-16T18:14:30.230Z,30.63
2022-10-16T18:16:58.897Z,28.17
2022-10-16T18:19:27.696Z,30.47
2022-10-16T18:21:57.487Z,32.67
2022-10-16T18:24:26.429Z,31.60
2022-10-16T18:26:56.849Z,31.43
2022-10-16T18:29:26.410Z,32.03
2022-10-16T18:31:54.992Z,34.77
2022-10-16T18:34:23.353Z,29.97
2022-10-16T18:36:54.265Z,42.43
2022-10-16T18:39:24.806Z,45.50
2022-10-16T18:41:59.494Z,36.73
2022-10-16T18:44:27.841Z,34.97
2022-10-16T18:46:59.073Z,28.53
2022-10-16T18:49:28.213Z,32.73
2022-10-16T18:51:57.603Z,36.47
2022-10-16T18:54:27.102Z,35.03
2022-10-16T18:56:55.345Z,35.73
2022-10-16T18:59:23.616Z,31.13
2022-10-16T19:01:52.523Z,33.60
2022-10-16T19:04:22.417Z,29.53
2022-10-16T19:06:52.989Z,32.03
2022-10-16T19:09:23.706Z,29.70
2022-10-16T19:11:53.587Z,32.60
2022-10-16T19:14:21.818Z,31.50
2022-10-16T19:16:49.925Z,28.67
2022-10-16T19:19:19.419Z,29.90
2022-10-16T19:21:51.192Z,28.77
2022-10-16T19:24:19.315Z,33.43
2022-10-16T19:26:47.429Z,27.73
2022-10-16T19:29:16.899Z,27.50
2022-10-16T19:31:45.036Z,30.43
2022-10-16T19:34:13.233Z,33.43
2022-10-16T19:36:42.139Z,23.47
2022-10-16T19:39:14.210Z,27.40
2022-10-16T19:41:42.688Z,25.63
2022-10-16T19:44:12.929Z,24.40
2022-10-16T19:46:43.176Z,24.47
2022-10-16T19:49:14.368Z,24.93
2022-10-16T19:51:42.442Z,20.50
2022-10-16T19:54:13.698Z,24.57
2022-10-16T19:56:42.652Z,19.23
2022-10-16T19:59:13.142Z,20.43
2022-10-16T20:01:42.874Z,18.73
2022-10-16T20:04:11.193Z,17.93
2022-10-16T20:06:39.543Z,20.30
2022-10-16T20:09:08.031Z,17.73
2022-10-16T20:11:36.935Z,19.33
2022-10-16T20:14:06.221Z,18.27
2022-10-16T20:16:34.364Z,15.73
2022-10-16T20:19:05.025Z,16.00
2022-10-16T20:21:35.266Z,18.77
2022-10-16T20:24:05.166Z,17.37
2022-10-16T20:26:33.556Z,19.67
2022-10-16T20:29:02.228Z,18.17
2022-10-16T20:31:32.202Z,16.87
2022-10-16T20:34:05.841Z,17.43
2022-10-16T20:36:34.166Z,14.83
2022-10-16T20:39:02.961Z,18.17
2022-10-16T20:41:31.087Z,14.80
2022-10-16T20:43:59.770Z,15.67
2022-10-16T20:46:30.043Z,15.87
2022-10-16T20:49:10.524Z,14.90
2022-10-16T20:51:41.007Z,17.20
2022-10-16T20:54:09.114Z,14.03
2022-10-16T20:56:38.561Z,14.70
2022-10-16T20:59:07.266Z,15.43
2022-10-16T21:01:36.768Z,19.30
2022-10-16T21:04:07.171Z,15.70
2022-10-16T21:06:36.980Z,20.30
2022-10-16T21:09:07.557Z,14.33
2022-10-16T21:11:38.206Z,13.77
2022-10-16T21:14:08.011Z,15.87
2022-10-16T21:16:36.406Z,15.87
2022-10-16T21:19:04.585Z,14.10
2022-10-16T21:21:34.534Z,12.73
2022-10-16T21:24:03.020Z,14.83
2022-10-16T21:26:32.991Z,14.73
2022-10-16T21:29:03.176Z,16.50
2022-10-16T21:31:31.688Z,16.50
2022-10-16T21:34:00.340Z,18.27
2022-10-16T21:36:29.837Z,14.00
2022-10-16T21:39:02.088Z,19.63
2022-10-16T21:41:32.176Z,16.47
2022-10-16T21:44:02.905Z,14.37
2022-10-16T21:46:33.444Z,14.60
2022-10-16T21:49:04.982Z,12.23
2022-10-16T21:51:34.759Z,11.90
2022-10-16T21:54:03.459Z,15.90
2022-10-16T21:56:33.072Z,15.00
2022-10-16T21:59:01.257Z,13.90
2022-10-16T22:01:30.898Z,13.60
2022-10-16T22:03:59.586Z,17.93
2022-10-16T22:06:29.362Z,14.10
2022-10-16T22:08:59.712Z,13.87
2022-10-16T22:11:29.730Z,13.53
2022-10-16T22:13:59.303Z,16.43
2022-10-16T22:16:28.385Z,14.60
2022-10-16T22:18:57.919Z,19.97
2022-10-16T22:21:26.490Z,18.53
2022-10-16T22:23:54.555Z,15.73
2022-10-16T22:26:23.303Z,16.13
2022-10-16T22:28:51.550Z,13.23
2022-10-16T22:31:21.684Z,15.07
2022-10-16T22:33:54.215Z,16.57
2022-10-16T22:36:22.466Z,14.57
2022-10-16T22:38:50.702Z,15.17
2022-10-16T22:41:18.837Z,17.00
2022-10-16T22:43:48.417Z,15.27
2022-10-16T22:46:19.087Z,13.90
2022-10-16T22:48:48.568Z,13.67
2022-10-16T22:51:17.546Z,15.10
2022-10-16T22:53:46.280Z,18.30
2022-10-16T22:56:15.229Z,17.70
2022-10-16T22:58:43.471Z,14.50
2022-10-16T23:01:13.735Z,15.23
2022-10-16T23:03:41.884Z,13.47
2022-10-16T23:06:11.452Z,18.37
2022-10-16T23:08:39.810Z,17.83
2022-10-16T23:11:09.385Z,12.53
2022-10-16T23:13:38.811Z,16.33
2022-10-16T23:16:08.375Z,14.50
2022-10-16T23:18:36.754Z,14.27
2022-10-16T23:21:06.705Z,14.60
2022-10-16T23:23:37.786Z,14.63
2022-10-16T23:26:10.003Z,12.40
2022-10-16T23:28:38.188Z,15.70
2022-10-16T23:31:07.062Z,14.43
2022-10-16T23:33:36.637Z,14.60
2022-10-16T23:36:06.960Z,13.20
2022-10-16T23:38:36.629Z,21.57
2022-10-16T23:41:05.198Z,18.03
2022-10-16T23:43:33.625Z,14.13
2022-10-16T23:46:02.193Z,12.77
2022-10-16T23:48:30.362Z,10.73
2022-10-16T23:50:58.499Z,13.47
2022-10-16T23:53:26.712Z,12.87
2022-10-16T23:55:56.233Z,10.70
2022-10-16T23:58:24.465Z,11.23
